createdAt,value
2023-01-23T00:01:02.222Z,-0.99
2023-01-23T00:03:28.874Z,-0.98
2023-01-23T00:06:07.621Z,-0.90
2023-01-23T00:08:35.693Z,-0.89
2023-01-23T00:11:07.424Z,-0.80
2023-01-23T00:13:35.536Z,-0.88
2023-01-23T00:16:09.882Z,-0.75
2023-01-23T00:18:36.537Z,-0.73
2023-01-23T00:21:08.471Z,-0.71
2023-01-23T00:23:35.644Z,-0.75
2023-01-23T00:26:07.796Z,-0.78
2023-01-23T00:28:35.410Z,-0.81
2023-01-23T00:31:06.953Z,-0.84
2023-01-23T00:33:33.860Z,-0.78
2023-01-23T00:36:00.862Z,-0.79
2023-01-23T00:38:27.806Z,-0.86
2023-01-23T00:40:56.292Z,-0.93
2023-01-23T00:43:24.169Z,-0.89
2023-01-23T00:45:51.365Z,-0.99
2023-01-23T00:48:17.976Z,-0.94
2023-01-23T00:50:44.982Z,-0.89
2023-01-23T00:53:13.007Z,-0.89
2023-01-23T00:55:40.260Z,-0.84
2023-01-23T00:58:08.303Z,-0.84
2023-01-23T01:00:36.065Z,-0.79
2023-01-23T01:03:03.457Z,-0.80
2023-01-23T01:05:30.330Z,-0.77
2023-01-23T01:07:57.098Z,-0.88
2023-01-23T01:10:25.598Z,-0.88
2023-01-23T01:12:52.320Z,-1.00
2023-01-23T01:15:18.990Z,-0.94
2023-01-23T01:17:45.620Z,-0.92
2023-01-23T01:20:12.868Z,-0.95
2023-01-23T01:22:39.527Z,-0.86
2023-01-23T01:25:06.776Z,-0.80
2023-01-23T01:27:33.432Z,-0.82
2023-01-23T01:30:00.055Z,-0.83
2023-01-23T01:32:26.691Z,-0.95
2023-01-23T01:34:53.448Z,-0.88
2023-01-23T01:37:22.554Z,-0.84
2023-01-23T01:39:49.348Z,-0.79
2023-01-23T01:42:16.020Z,-0.86
2023-01-23T01:45:28.722Z,-0.80
2023-01-23T01:47:55.491Z,-0.85
2023-01-23T01:50:22.515Z,-0.89
2023-01-23T01:52:49.262Z,-0.81
2023-01-23T01:55:15.996Z,-0.92
2023-01-23T01:57:45.348Z,-0.92
2023-01-23T02:00:16.206Z,-1.05
2023-01-23T02:02:56.088Z,-1.00
2023-01-23T02:05:26.416Z,-0.99
2023-01-23T02:08:16.050Z,-0.86
2023-01-23T02:10:44.174Z,-0.84
2023-01-23T02:13:22.680Z,-0.75
2023-01-23T02:15:50.099Z,-0.71
2023-01-23T02:18:17.152Z,-0.74
2023-01-23T02:20:44.646Z,-0.66
2023-01-23T02:23:31.533Z,-0.71
2023-01-23T02:26:05.270Z,-0.99
2023-01-23T02:28:49.893Z,-0.99
2023-01-23T02:31:16.603Z,-1.02
2023-01-23T02:33:49.185Z,-1.00
2023-01-23T02:36:18.163Z,-1.00
2023-01-23T02:39:07.993Z,-1.04
2023-01-23T02:41:41.201Z,-0.93
2023-01-23T02:44:16.350Z,-0.99
2023-01-23T02:46:43.007Z,-0.95
2023-01-23T02:49:09.788Z,-0.98
2023-01-23T02:51:36.687Z,-0.92
2023-01-23T02:54:03.915Z,-0.98
2023-01-23T02:56:30.668Z,-1.00
2023-01-23T02:59:15.596Z,-1.03
2023-01-23T03:01:42.247Z,-1.28
2023-01-23T03:04:08.917Z,-1.24
2023-01-23T03:06:37.614Z,-1.16
2023-01-23T03:09:10.323Z,-1.07
2023-01-23T03:11:39.539Z,-1.10
2023-01-23T03:14:09.703Z,-1.07
2023-01-23T03:16:38.270Z,-1.13
2023-01-23T03:19:09.179Z,-1.17
2023-01-23T03:21:40.378Z,-1.17
2023-01-23T03:24:12.657Z,-1.05
2023-01-23T03:26:40.940Z,-1.08
2023-01-23T03:29:27.227Z,-1.04
2023-01-23T03:31:53.874Z,-0.91
2023-01-23T03:34:22.192Z,-0.92
2023-01-23T03:36:48.861Z,-0.89
2023-01-23T03:39:34.054Z,-0.93
2023-01-23T03:42:00.759Z,-0.92
2023-01-23T03:44:27.424Z,-0.90
2023-01-23T03:46:54.033Z,-0.85
2023-01-23T03:49:20.766Z,-0.82
2023-01-23T03:51:47.517Z,-0.77
2023-01-23T03:54:14.825Z,-0.71
2023-01-23T03:56:42.822Z,-0.74
2023-01-23T03:59:10.091Z,-0.86
2023-01-23T04:01:37.662Z,-0.84
2023-01-23T04:04:04.661Z,-0.77
2023-01-23T04:06:31.316Z,-0.79
2023-01-23T04:08:58.300Z,-0.94
2023-01-23T04:11:26.814Z,-1.04
2023-01-23T04:13:54.713Z,-1.03
2023-01-23T04:16:25.464Z,-0.95
2023-01-23T04:18:52.435Z,-0.99
2023-01-23T04:21:19.088Z,-1.01
2023-01-23T04:23:46.177Z,-0.97
2023-01-23T04:26:13.359Z,-0.92
2023-01-23T04:28:40.230Z,-0.95
2023-01-23T04:31:09.321Z,-0.93
2023-01-23T04:33:36.196Z,-0.64
2023-01-23T04:36:05.243Z,-0.49
2023-01-23T04:38:33.517Z,-0.64
2023-01-23T04:41:00.310Z,-0.69
2023-01-23T04:43:27.132Z,-0.74
2023-01-23T04:45:56.818Z,-0.85
2023-01-23T04:48:24.423Z,-1.10
2023-01-23T04:50:51.391Z,-1.04
2023-01-23T04:53:18.155Z,-1.03
2023-01-23T04:55:47.387Z,-0.99
2023-01-23T04:58:14.095Z,-0.99
2023-01-23T05:00:40.774Z,-0.94
2023-01-23T05:03:07.398Z,-0.84
2023-01-23T05:05:34.235Z,-0.80
2023-01-23T05:08:00.845Z,-0.78
2023-01-23T05:10:27.579Z,-0.75
2023-01-23T05:12:54.213Z,-0.76
2023-01-23T05:15:21.300Z,-0.69
2023-01-23T05:17:48.936Z,-0.70
2023-01-23T05:20:15.819Z,-0.78
2023-01-23T05:22:52.262Z,-0.79
2023-01-23T05:25:25.466Z,-0.86
2023-01-23T05:27:52.905Z,-0.87
2023-01-23T05:30:22.062Z,-1.04
2023-01-23T05:32:49.372Z,-1.06
2023-01-23T05:35:16.889Z,-0.99
2023-01-23T05:37:43.536Z,-0.97
2023-01-23T05:40:13.293Z,-0.94
2023-01-23T05:42:39.964Z,-0.83
2023-01-23T05:45:07.314Z,-0.78
2023-01-23T05:47:34.181Z,-0.92
2023-01-23T05:50:01.260Z,-0.87
2023-01-23T05:52:27.995Z,-0.94
2023-01-23T05:54:54.696Z,-0.98
2023-01-23T05:57:21.386Z,-0.99
2023-01-23T05:59:48.073Z,-0.98
2023-01-23T06:02:14.882Z,-1.00
2023-01-23T06:04:41.752Z,-0.97
2023-01-23T06:07:14.398Z,-0.95
2023-01-23T06:09:41.210Z,-0.90
2023-01-23T06:12:08.889Z,-1.02
2023-01-23T06:14:35.812Z,-0.96
2023-01-23T06:17:02.844Z,-1.00
2023-01-23T06:19:29.583Z,-1.06
2023-01-23T06:21:56.428Z,-1.05
2023-01-23T06:24:23.225Z,-0.99
2023-01-23T06:26:50.533Z,-0.99
2023-01-23T06:29:17.215Z,-0.92
2023-01-23T06:31:43.902Z,-1.03
2023-01-23T06:34:10.844Z,-1.03
2023-01-23T06:36:37.547Z,-0.99
2023-01-23T06:39:04.141Z,-1.01
2023-01-23T06:41:30.807Z,-0.95
2023-01-23T06:43:57.623Z,-0.96
2023-01-23T06:46:24.335Z,-1.11
2023-01-23T06:48:52.562Z,-1.06
2023-01-23T06:51:19.228Z,-1.06
2023-01-23T06:53:45.912Z,-1.00
2023-01-23T06:56:12.620Z,-1.01
2023-01-23T06:58:39.221Z,-0.95
2023-01-23T07:01:15.872Z,-0.98
2023-01-23T07:03:44.840Z,-1.01
2023-01-23T07:06:13.051Z,-1.03
2023-01-23T07:08:40.054Z,-0.97
2023-01-23T07:11:07.290Z,-1.05
2023-01-23T07:13:34.047Z,-0.97
2023-01-23T07:16:01.637Z,-0.97
2023-01-23T07:18:30.272Z,-1.00
2023-01-23T07:20:57.000Z,-0.97
2023-01-23T07:23:23.840Z,-0.91
2023-01-23T07:25:50.730Z,-0.82
2023-01-23T07:28:17.362Z,-0.89
2023-01-23T07:30:44.093Z,-0.88
2023-01-23T07:33:12.270Z,-0.87
2023-01-23T07:35:40.099Z,-0.81
2023-01-23T07:38:06.659Z,-0.88
2023-01-23T07:40:33.276Z,-0.78
2023-01-23T07:42:59.881Z,-0.85
2023-01-23T07:45:26.568Z,-0.83
2023-01-23T07:47:53.119Z,-0.93
2023-01-23T07:50:19.940Z,-0.92
2023-01-23T07:52:46.759Z,-0.83
2023-01-23T07:55:13.428Z,-0.75
2023-01-23T07:57:40.024Z,-0.71
2023-01-23T08:00:07.809Z,-0.81
2023-01-23T08:02:34.371Z,-0.67
2023-01-23T08:05:00.928Z,-0.58
2023-01-23T08:07:27.565Z,-0.44
2023-01-23T08:09:54.178Z,-0.43
2023-01-23T08:12:20.823Z,-0.37
2023-01-23T08:14:48.100Z,-0.37
2023-01-23T08:17:14.787Z,-0.30
2023-01-23T08:19:41.352Z,-0.30
2023-01-23T08:22:07.932Z,-0.23
2023-01-23T08:24:34.548Z,-0.23
2023-01-23T08:27:01.292Z,-0.37
2023-01-23T08:29:27.924Z,-0.29
2023-01-23T08:31:55.122Z,-0.37
2023-01-23T08:34:22.077Z,-0.44
2023-01-23T08:36:48.708Z,-0.31
2023-01-23T08:39:17.085Z,-0.40
2023-01-23T08:41:43.628Z,-0.43
2023-01-23T08:44:10.242Z,-0.29
2023-01-23T08:46:36.821Z,-0.32
2023-01-23T08:49:04.918Z,-0.31
2023-01-23T08:51:31.555Z,-0.27
2023-01-23T08:53:58.181Z,-0.13
2023-01-23T08:56:25.227Z,-0.16
2023-01-23T08:58:51.951Z,-0.17
2023-01-23T09:01:24.344Z,-0.05
2023-01-23T09:03:50.861Z,-0.10
2023-01-23T09:06:19.311Z,-0.25
2023-01-23T09:08:46.218Z,-0.16
2023-01-23T09:11:14.060Z,-0.07
2023-01-23T09:13:41.175Z,-0.10
2023-01-23T09:16:08.956Z,0.03
2023-01-23T09:18:36.319Z,-0.05
2023-01-23T09:21:11.931Z,0.04
2023-01-23T09:23:38.827Z,0.05
2023-01-23T09:26:11.196Z,0.11
2023-01-23T09:28:40.102Z,0.19
2023-01-23T09:31:08.748Z,0.17
2023-01-23T09:33:35.987Z,0.18
2023-01-23T09:36:03.790Z,0.05
2023-01-23T09:38:30.713Z,0.15
2023-01-23T09:40:58.982Z,0.10
2023-01-23T09:43:35.739Z,0.06
2023-01-23T09:46:31.593Z,0.17
2023-01-23T09:49:37.320Z,0.17
2023-01-23T09:52:11.187Z,0.21
2023-01-23T09:54:50.367Z,0.28
2023-01-23T09:57:42.718Z,0.20
2023-01-23T10:00:36.509Z,0.13
2023-01-23T10:03:11.343Z,0.28
2023-01-23T10:06:08.154Z,0.31
2023-01-23T10:09:16.203Z,0.33
2023-01-23T10:11:59.288Z,0.36
2023-01-23T10:14:58.329Z,0.43
2023-01-23T10:17:41.565Z,0.47
2023-01-23T10:20:40.399Z,0.53
2023-01-23T10:24:01.897Z,0.46
2023-01-23T10:26:34.542Z,0.42
2023-01-23T10:29:15.674Z,0.39
2023-01-23T10:32:04.568Z,0.43
2023-01-23T10:34:55.601Z,0.50
2023-01-23T11:02:44.199Z,0.87
2023-01-23T11:05:52.508Z,0.88
2023-01-23T11:08:36.229Z,0.72
2023-01-23T11:14:10.737Z,0.85
2023-01-23T11:16:38.159Z,0.83
2023-01-23T11:19:16.177Z,0.84
2023-01-23T11:21:58.534Z,0.91
2023-01-23T11:24:45.374Z,1.00
2023-01-23T11:27:31.085Z,1.01
2023-01-23T11:30:27.010Z,0.95
2023-01-23T11:33:12.735Z,0.81
2023-01-23T11:36:03.074Z,0.89
2023-01-23T11:38:42.115Z,0.95
2023-01-23T11:41:15.196Z,1.02
2023-01-23T11:43:42.293Z,1.04
2023-01-23T11:46:56.933Z,1.06
2023-01-23T11:50:11.727Z,1.09
2023-01-23T11:53:05.060Z,1.17
2023-01-23T11:55:45.885Z,1.24
2023-01-23T11:59:14.498Z,1.30
2023-01-23T12:02:39.414Z,1.35
2023-01-23T12:11:20.499Z,1.06
2023-01-23T12:14:03.342Z,1.10
2023-01-23T12:16:56.728Z,1.09
2023-01-23T12:38:06.812Z,1.03
2023-01-23T12:41:00.113Z,0.96
2023-01-23T12:43:59.565Z,0.84
2023-01-23T12:46:34.438Z,0.85
2023-01-23T12:52:23.822Z,0.86
2023-01-23T13:10:05.853Z,0.82
2023-01-23T13:12:33.084Z,0.80
2023-01-23T13:15:38.776Z,0.78
2023-01-23T13:18:06.267Z,0.87
2023-01-23T13:21:14.793Z,0.98
2023-01-23T13:23:41.517Z,0.87
2023-01-23T13:26:28.918Z,0.78
2023-01-23T13:29:02.215Z,0.65
2023-01-23T13:31:40.110Z,0.58
2023-01-23T13:34:37.124Z,0.63
2023-01-23T13:37:50.924Z,0.62
2023-01-23T13:40:21.223Z,0.65
2023-01-23T13:42:47.952Z,0.66
2023-01-23T13:45:27.514Z,0.72
2023-01-23T14:22:12.228Z,0.68
2023-01-23T14:24:55.029Z,0.75
2023-01-23T14:27:52.128Z,0.76
2023-01-23T14:30:28.200Z,0.77
2023-01-23T14:32:55.510Z,0.78
2023-01-23T14:35:43.013Z,0.78
2023-01-23T14:38:16.174Z,0.83
2023-01-23T14:40:51.043Z,0.83
2023-01-23T14:43:21.915Z,0.74
2023-01-23T14:45:54.045Z,0.70
2023-01-23T14:48:21.787Z,0.69
2023-01-23T14:50:48.433Z,0.71
2023-01-23T14:53:16.903Z,0.81
2023-01-23T14:55:47.090Z,0.80
2023-01-23T14:58:22.647Z,0.65
2023-01-23T15:00:50.311Z,0.70
2023-01-23T15:03:37.206Z,0.63
2023-01-23T15:06:09.975Z,0.61
2023-01-23T15:08:37.604Z,0.56
2023-01-23T15:11:06.557Z,0.66
2023-01-23T15:13:48.618Z,0.53
2023-01-23T15:16:29.041Z,0.56
2023-01-23T15:19:02.851Z,0.59
2023-01-23T15:21:33.189Z,0.57
2023-01-23T15:24:20.040Z,0.56
2023-01-23T15:26:58.768Z,0.60
2023-01-23T15:29:27.125Z,0.60
2023-01-23T15:31:55.201Z,0.58
2023-01-23T15:34:29.401Z,0.69
2023-01-23T15:37:21.465Z,0.65
2023-01-23T15:40:04.977Z,0.71
2023-01-23T15:42:34.066Z,0.77
2023-01-23T15:45:01.743Z,0.77
2023-01-23T15:47:30.400Z,0.69
2023-01-23T15:50:01.497Z,0.70
2023-01-23T15:52:48.668Z,0.71
2023-01-23T15:55:15.601Z,0.77
2023-01-23T15:57:43.233Z,0.62
2023-01-23T16:00:18.611Z,0.70
2023-01-23T16:02:55.510Z,0.68
2023-01-23T16:05:25.133Z,0.74
2023-01-23T16:07:53.338Z,0.72
2023-01-23T16:10:25.844Z,0.67
2023-01-23T16:12:53.755Z,0.72
2023-01-23T16:15:23.732Z,0.76
2023-01-23T16:17:51.237Z,0.72
2023-01-23T16:20:20.450Z,0.74
2023-01-23T16:22:51.413Z,0.70
2023-01-23T16:25:43.711Z,0.70
2023-01-23T16:28:20.805Z,0.58
2023-01-23T16:30:48.210Z,0.62
2023-01-23T16:33:14.947Z,0.74
2023-01-23T16:35:41.858Z,0.57
2023-01-23T16:38:19.694Z,0.56
2023-01-23T16:40:46.295Z,0.65
2023-01-23T16:43:12.878Z,0.71
2023-01-23T16:45:39.562Z,0.66
2023-01-23T16:48:09.171Z,0.70
2023-01-23T16:50:41.366Z,0.76
2023-01-23T16:53:27.823Z,0.75
2023-01-23T16:55:56.923Z,0.75
2023-01-23T16:58:34.034Z,0.75
2023-01-23T17:01:03.726Z,0.70
2023-01-23T17:03:33.806Z,0.69
2023-01-23T17:06:00.770Z,0.79
2023-01-23T17:08:27.770Z,0.82
2023-01-23T17:10:58.341Z,0.86
2023-01-23T17:13:25.621Z,0.83
2023-01-23T17:15:55.583Z,0.77
2023-01-23T17:18:31.125Z,0.78
2023-01-23T17:20:58.753Z,0.85
2023-01-23T17:23:25.754Z,0.80
2023-01-23T17:26:00.798Z,0.84
2023-01-23T17:28:28.683Z,0.84
2023-01-23T17:30:57.894Z,0.84
2023-01-23T17:33:28.330Z,0.82
2023-01-23T17:35:54.968Z,0.84
2023-01-23T17:38:26.877Z,0.91
2023-01-23T17:40:53.788Z,0.89
2023-01-23T17:43:21.396Z,0.86
2023-01-23T17:45:51.367Z,0.76
2023-01-23T17:48:25.092Z,0.72
2023-01-23T17:50:51.971Z,0.76
2023-01-23T17:53:19.468Z,0.80
2023-01-23T17:55:49.339Z,0.81
2023-01-23T17:58:16.218Z,0.75
2023-01-23T18:00:44.663Z,0.71
2023-01-23T18:03:17.962Z,0.80
2023-01-23T18:05:44.561Z,0.80
2023-01-23T18:08:15.956Z,0.88
2023-01-23T18:10:48.151Z,0.82
2023-01-23T18:13:28.157Z,0.77
2023-01-23T18:16:25.581Z,0.82
2023-01-23T18:19:14.992Z,0.79
2023-01-23T18:21:42.097Z,0.83
2023-01-23T18:24:32.604Z,0.87
2023-01-23T18:27:04.284Z,0.83
2023-01-23T18:30:13.693Z,0.77
2023-01-23T18:33:05.787Z,0.77
2023-01-23T18:36:09.980Z,0.79
2023-01-23T18:39:03.677Z,0.77
2023-01-23T18:41:30.564Z,0.76
2023-01-23T18:44:27.471Z,0.78
2023-01-23T18:46:54.533Z,0.80
2023-01-23T18:49:32.459Z,0.74
2023-01-23T18:52:09.112Z,0.71
2023-01-23T18:54:45.346Z,0.72
2023-01-23T18:58:08.993Z,0.67
2023-01-23T19:00:53.729Z,0.72
2023-01-23T19:03:36.279Z,0.75
2023-01-23T19:06:12.919Z,0.76
2023-01-23T19:08:40.800Z,0.82
2023-01-23T19:11:24.344Z,0.76
2023-01-23T19:14:17.470Z,0.65
2023-01-23T19:17:02.354Z,0.69
2023-01-23T19:19:38.299Z,0.72
2023-01-23T19:22:11.745Z,0.82
2023-01-23T19:24:38.815Z,0.80
2023-01-23T19:27:17.050Z,0.79
2023-01-23T19:29:43.994Z,0.78
2023-01-23T19:32:11.253Z,0.84
2023-01-23T19:34:38.151Z,0.82
2023-01-23T19:37:04.898Z,0.80
2023-01-23T19:39:31.490Z,0.86
2023-01-23T19:41:59.437Z,0.85
2023-01-23T19:44:28.855Z,0.81
2023-01-23T19:46:55.635Z,0.76
2023-01-23T19:49:22.343Z,0.70
2023-01-23T19:51:48.969Z,0.75
2023-01-23T19:54:16.295Z,0.68
2023-01-23T19:56:43.020Z,0.64
2023-01-23T19:59:09.824Z,0.66
2023-01-23T20:01:48.508Z,0.66
2023-01-23T20:04:20.816Z,0.68
2023-01-23T20:06:54.152Z,0.69
2023-01-23T20:09:22.149Z,0.70
2023-01-23T20:11:48.921Z,0.75
2023-01-23T20:14:15.805Z,0.70
2023-01-23T20:16:43.308Z,0.71
2023-01-23T20:19:14.764Z,0.81
2023-01-23T20:21:41.565Z,0.78
2023-01-23T20:24:08.594Z,0.74
2023-01-23T20:26:35.836Z,0.73
2023-01-23T20:29:03.908Z,0.81
2023-01-23T20:31:31.126Z,0.73
2023-01-23T20:33:58.042Z,0.79
2023-01-23T20:36:24.734Z,0.76
2023-01-23T20:38:51.376Z,0.79
2023-01-23T20:41:19.399Z,0.76
2023-01-23T20:43:46.777Z,0.82
2023-01-23T20:46:15.199Z,0.71
2023-01-23T20:48:44.254Z,0.66
2023-01-23T20:51:12.480Z,0.66
2023-01-23T20:53:40.051Z,0.74
2023-01-23T20:56:29.724Z,0.72
2023-01-23T20:59:15.616Z,0.76
2023-01-23T21:02:02.147Z,0.74
2023-01-23T21:04:31.840Z,0.74
2023-01-23T21:06:59.628Z,0.74
2023-01-23T21:09:26.737Z,0.74
2023-01-23T21:11:54.283Z,0.78
2023-01-23T21:14:22.360Z,0.77
2023-01-23T21:16:49.266Z,0.82
2023-01-23T21:19:16.172Z,0.76
2023-01-23T21:21:43.345Z,0.76
2023-01-23T21:24:10.303Z,0.74
2023-01-23T21:26:37.369Z,0.65
2023-01-23T21:29:04.693Z,0.70
2023-01-23T21:31:33.770Z,0.70
2023-01-23T21:34:08.067Z,0.69
2023-01-23T21:36:35.760Z,0.71
2023-01-23T21:39:02.836Z,0.69
2023-01-23T21:41:29.589Z,0.75
2023-01-23T21:43:56.224Z,0.78
2023-01-23T21:46:23.276Z,0.76
2023-01-23T21:48:50.055Z,0.87
2023-01-23T21:51:20.002Z,0.87
2023-01-23T21:53:48.422Z,0.91
2023-01-23T21:56:17.069Z,0.92
2023-01-23T21:58:44.098Z,0.81
2023-01-23T22:01:39.583Z,0.82
2023-01-23T22:04:22.527Z,0.83
2023-01-23T22:06:54.204Z,0.88
2023-01-23T22:09:22.220Z,0.80
2023-01-23T22:11:49.179Z,0.85
2023-01-23T22:14:16.882Z,0.83
2023-01-23T22:16:51.350Z,1.00
2023-01-23T22:19:24.184Z,0.91
2023-01-23T22:21:51.432Z,0.96
2023-01-23T22:24:18.334Z,0.92
2023-01-23T22:26:45.004Z,0.95
2023-01-23T22:29:13.190Z,0.93
2023-01-23T22:31:39.873Z,0.94
2023-01-23T22:34:06.804Z,0.93
2023-01-23T22:36:33.426Z,0.96
2023-01-23T22:39:00.040Z,1.00
2023-01-23T22:41:26.712Z,1.03
2023-01-23T22:43:54.724Z,1.02
2023-01-23T22:46:22.352Z,1.03
2023-01-23T22:48:49.316Z,1.02
2023-01-23T22:51:24.209Z,1.07
2023-01-23T22:53:51.683Z,1.09
2023-01-23T22:56:18.345Z,1.08
2023-01-23T22:58:49.109Z,1.04
2023-01-23T23:01:16.575Z,1.08
2023-01-23T23:03:43.568Z,1.09
2023-01-23T23:06:13.473Z,1.14
2023-01-23T23:08:40.571Z,1.09
2023-01-23T23:11:10.379Z,1.10
2023-01-23T23:13:38.708Z,1.13
2023-01-23T23:16:07.920Z,1.04
2023-01-23T23:18:36.179Z,1.06
2023-01-23T23:21:10.934Z,1.08
2023-01-23T23:23:38.041Z,1.12
2023-01-23T23:26:05.818Z,1.13
2023-01-23T23:28:33.391Z,1.14
2023-01-23T23:31:00.285Z,1.05
2023-01-23T23:33:26.957Z,1.10
2023-01-23T23:35:53.590Z,1.19
2023-01-23T23:38:20.738Z,1.14
2023-01-23T23:41:04.696Z,1.10
2023-01-23T23:43:31.787Z,1.15
2023-01-23T23:46:01.378Z,1.09
2023-01-23T23:48:29.347Z,1.15
2023-01-23T23:50:56.307Z,1.23
2023-01-23T23:53:23.152Z,1.23
2023-01-23T23:55:49.828Z,1.20
2023-01-23T23:58:16.945Z,1.17
